Overview Statistics Trail Chart Weather Telemetry Raw packets
 

This is the latest recevied weather packets stored in our database for station/object SM4JDW-10. If no packets are shown the sender has not sent any weather packets the latest 10 day(s).

<< 2 3 4 5 6 7 8 >>
Time Temp. Humidity Pressure Rain* Wind** Luminosity Snow
1788457087 16.11° C 50% 1001.3 hPa - - - -
1788455287 17.22° C 48% 1001.2 hPa - - - -
1788453487 17.78° C 46% 1001.3 hPa - - - -
1788451687 18.33° C 43% 1001.2 hPa - - - -
1788449887 18.89° C 41% 1001.3 hPa - - - -
1788448087 19.44° C 40% 1001.3 hPa - - - -
1788446287 20.56° C 40% 1001.5 hPa - - - -
1788444487 21.11° C 39% 1001.4 hPa - - - -
1788442687 20.56° C 43% 1001.5 hPa - - - -
1788440887 20.56° C 43% 1001.6 hPa - - - -
1788439086 20° C 46% 1001.6 hPa - - - -
1788437286 18.89° C 51% 1001.7 hPa - - - -
1788435486 18.33° C 50% 1001.9 hPa - - - -
1788433686 17.22° C 52% 1002 hPa - - - -
1788431886 16.67° C 56% 1002.1 hPa - - - -
1788430086 15.56° C 60% 1002 hPa - - - -
1788428285 13.89° C 62% 1002.1 hPa - - - -
1788426488 12.78° C 67% 1002.1 hPa - - - -
1788424688 11.67° C 68% 1002.1 hPa - - - -
1788422888 10.56° C 70% 1002.1 hPa - - - -
1788421088 10° C 70% 1002.1 hPa - - - -
1788419288 10° C 71% 1002.1 hPa - - - -
1788417488 9.44° C 71% 1002.2 hPa - - - -
1788415688 8.89° C 70% 1002.1 hPa - - - -
1788413888 8.89° C 71% 1002.2 hPa - - - -

* Rain since midnight (hover to see other rain measurements)
** Current wind speed in m/s (hover to see current wind gust speed)